Gem Village, Colorado
Current Conditions -  °F | °C
As of 5:53 AM on Sunday 23 Nov 2014 (Local Time) from KDRO Reporting Station
Broken Clouds Broken Clouds  
Wind Chill: 21°   Ceiling: 11000
Heat Index: 32°   Visibility: 10mi
Dew Point: 24°   Wind: 16mph
Humidity: 73%   Direction: 260°W
Pressure: 29.75"   Gusts: NA
Location:  37.3933°N, 107.574°W
Report Text: KDRO 231253Z AUTO 26014KT 10SM BKN110 00/M04 A2975 RMK AO2 SLP071 T00001044
Loading
Personal Weather Stations






























Interactive Weather Map New forecast layout! Learn more

10-Day Weather Forecast

Advertisements
Track Severe Weather on mobile